Findhorn, United Kingdom
Current Conditions -  °F | °C
As of 8:50 AM on Monday 24 Nov 2014 (Local Time) from EGQK Reporting Station
Overcast Overcast  
Wind Chill: 41°   Ceiling: 18000
Heat Index: 45°   Visibility: 6mi
Dew Point: 37°   Wind: 6mph
Humidity: 76%   Direction: 180°S
Pressure: 30.09"   Gusts: NA
Location:  57.66°N, 3.61°W
Report Text: EGQK 240850Z AUTO 18005KT 9999 OVC180/// 07/03 Q1019
Loading
Personal Weather Stations






























Interactive Weather Map New forecast layout! Learn more

10-Day Weather Forecast

Advertisements
Track Severe Weather on mobile